Time;durP1;ratioP1;P1;durP2;ratioP2;P2;SDS_P1;SDS_P2;PMS_P1;PMS_P2;Temp;Humidity;BMP_temperature;BMP_pressure;BME280_temperature;BME280_humidity;BME280_pressure;Samples;Min_cycle;Max_cycle;Signal;HPM_P1;HPM_P2
2022/05/18 00:00:57;;;;;;;11.37;6.47;;;16.50;99.90;;;;;;4999876;28;20190;-85
2022/05/18 00:03:30;;;;;;;8.50;5.47;;;16.40;99.90;;;;;;4998477;28;20267;-85
2022/05/18 00:06:00;;;;;;;13.10;5.97;;;16.50;99.90;;;;;;4998016;28;20178;-85
2022/05/18 00:08:26;;;;;;;8.10;5.50;;;16.60;99.90;;;;;;4997841;28;20171;-85
2022/05/18 00:10:52;;;;;;;9.77;5.33;;;16.50;99.90;;;;;;4998228;28;20200;-85
2022/05/18 00:13:19;;;;;;;11.93;5.67;;;16.40;99.90;;;;;;4997782;28;20189;-84
2022/05/18 00:15:46;;;;;;;10.27;6.00;;;16.40;99.90;;;;;;4998010;28;20171;-85
2022/05/18 00:18:12;;;;;;;6.63;5.43;;;16.30;99.90;;;;;;4998192;28;20262;-83
2022/05/18 00:20:37;;;;;;;9.73;5.37;;;16.30;99.90;;;;;;4998618;28;20210;-83
2022/05/18 00:23:04;;;;;;;7.87;5.63;;;16.20;99.90;;;;;;4999145;28;20623;-85
2022/05/18 00:25:35;;;;;;;10.77;5.50;;;16.20;99.90;;;;;;4998872;28;20188;-85
2022/05/18 00:28:01;;;;;;;11.37;5.97;;;16.10;99.90;;;;;;4999224;28;20585;-85
2022/05/18 00:30:28;;;;;;;10.37;6.53;;;16.20;99.90;;;;;;4998813;28;20241;-83
2022/05/18 00:32:54;;;;;;;11.60;6.17;;;15.90;99.90;;;;;;4998856;28;20632;-85
2022/05/18 00:35:22;;;;;;;14.83;6.13;;;16.00;99.90;;;;;;4999194;28;20186;-80
2022/05/18 00:37:48;;;;;;;12.30;5.80;;;16.00;99.90;;;;;;4998243;28;20183;-85
2022/05/18 00:40:16;;;;;;;15.77;6.40;;;15.90;99.90;;;;;;4998727;28;20234;-85
2022/05/18 00:42:43;;;;;;;11.57;6.53;;;16.00;99.90;;;;;;4999126;28;20173;-86
2022/05/18 00:45:10;;;;;;;15.93;7.33;;;16.00;99.90;;;;;;4999861;28;20258;-85
2022/05/18 00:47:36;;;;;;;12.30;6.80;;;16.00;99.90;;;;;;4999841;28;20190;-86
2022/05/18 00:50:09;;;;;;;12.57;6.87;;;15.90;99.90;;;;;;4999432;28;20202;-86
2022/05/18 00:52:40;;;;;;;12.27;7.20;;;15.80;99.90;;;;;;5000847;28;20186;-86
2022/05/18 00:55:09;;;;;;;8.27;6.63;;;15.70;99.90;;;;;;5003511;28;20183;-84
2022/05/18 00:57:39;;;;;;;13.73;7.43;;;15.70;99.90;;;;;;5001931;28;20175;-85
2022/05/18 01:00:12;;;;;;;14.23;7.90;;;15.70;99.90;;;;;;5000319;28;20207;-85
2022/05/18 01:02:41;;;;;;;15.53;7.13;;;15.70;99.90;;;;;;5000930;28;20170;-85
2022/05/18 01:05:10;;;;;;;10.77;7.33;;;15.90;99.90;;;;;;5000976;28;20170;-85
2022/05/18 01:07:43;;;;;;;17.67;8.17;;;15.80;99.90;;;;;;5000738;28;20194;-86
2022/05/18 01:10:10;;;;;;;16.27;7.93;;;15.70;99.90;;;;;;5000595;28;20194;-85
2022/05/18 01:12:35;;;;;;;15.70;8.57;;;15.80;99.90;;;;;;5000002;28;20178;-82
2022/05/18 01:15:10;;;;;;;12.20;7.83;;;15.70;99.90;;;;;;5000894;28;20672;-82
2022/05/18 01:17:39;;;;;;;12.33;7.50;;;15.70;99.90;;;;;;5000672;28;20188;-83
2022/05/18 01:20:09;;;;;;;14.93;8.30;;;15.60;99.90;;;;;;5000948;28;20213;-82
2022/05/18 01:22:52;;;;;;;14.50;7.93;;;15.60;99.90;;;;;;5001089;28;20182;-82
2022/05/18 01:25:34;;;;;;;12.80;8.13;;;15.70;99.90;;;;;;5000338;28;20171;-83
2022/05/18 01:28:02;;;;;;;12.50;8.33;;;15.80;99.90;;;;;;5000723;28;20175;-83
2022/05/18 01:30:29;;;;;;;11.60;8.27;;;15.60;99.90;;;;;;5000971;28;20270;-82
2022/05/18 01:32:57;;;;;;;15.27;8.40;;;15.60;99.90;;;;;;4999842;28;20639;-83
2022/05/18 01:35:27;;;;;;;21.40;9.10;;;15.60;99.90;;;;;;4999879;28;20635;-83
2022/05/18 01:37:59;;;;;;;13.97;8.93;;;15.70;99.90;;;;;;4999685;28;20273;-82
2022/05/18 01:40:46;;;;;;;16.60;8.87;;;15.80;99.90;;;;;;4999200;28;20292;-83
2022/05/18 01:43:24;;;;;;;18.57;9.90;;;15.80;99.90;;;;;;4998698;28;20170;-84
2022/05/18 01:45:57;;;;;;;15.03;9.10;;;15.70;99.90;;;;;;4999108;28;20788;-84
2022/05/18 01:48:27;;;;;;;17.43;9.50;;;15.70;99.90;;;;;;4998298;28;20181;-83
2022/05/18 01:50:53;;;;;;;15.03;9.27;;;15.70;99.90;;;;;;4998417;28;20190;-84
2022/05/18 01:53:20;;;;;;;14.30;8.77;;;15.70;99.90;;;;;;4998182;28;20220;-84
2022/05/18 01:55:47;;;;;;;19.37;9.27;;;15.80;99.90;;;;;;4998161;28;20308;-84
2022/05/18 01:58:14;;;;;;;14.87;9.23;;;15.70;99.90;;;;;;4997818;28;20167;-83
2022/05/18 02:00:41;;;;;;;15.80;9.60;;;15.60;99.90;;;;;;4997696;28;20310;-83
2022/05/18 02:03:07;;;;;;;19.20;9.50;;;15.60;99.90;;;;;;4997571;28;20176;-83
2022/05/18 02:05:33;;;;;;;17.03;9.93;;;15.70;99.90;;;;;;4998371;28;20174;-83
2022/05/18 02:07:59;;;;;;;17.73;10.03;;;15.70;99.90;;;;;;4998476;28;20511;-84
2022/05/18 02:10:25;;;;;;;21.13;9.40;;;15.70;99.90;;;;;;4998373;28;20197;-82
2022/05/18 02:12:52;;;;;;;18.37;10.30;;;15.70;99.90;;;;;;5016389;28;20170;-82
2022/05/18 02:15:18;;;;;;;15.67;9.63;;;15.70;99.90;;;;;;4998365;28;20202;-83
2022/05/18 02:17:44;;;;;;;16.63;9.20;;;15.70;99.90;;;;;;4998487;28;20721;-82
2022/05/18 02:20:11;;;;;;;15.73;10.30;;;15.70;99.90;;;;;;4998240;28;20293;-82
2022/05/18 02:22:37;;;;;;;16.97;10.23;;;15.60;99.90;;;;;;4998344;28;20178;-84
2022/05/18 02:25:03;;;;;;;18.73;10.40;;;15.50;99.90;;;;;;4998533;28;20197;-83
2022/05/18 02:27:29;;;;;;;21.37;10.30;;;15.60;99.90;;;;;;4998209;28;20182;-85
2022/05/18 02:29:55;;;;;;;16.27;10.10;;;15.60;99.90;;;;;;4997940;28;20181;-84
2022/05/18 02:32:22;;;;;;;16.87;10.57;;;15.60;99.90;;;;;;4998236;28;20727;-84
2022/05/18 02:34:48;;;;;;;20.30;10.23;;;15.60;99.90;;;;;;4998064;28;20178;-83
2022/05/18 02:37:14;;;;;;;13.90;9.03;;;15.50;99.90;;;;;;4998229;28;20266;-82
2022/05/18 02:39:39;;;;;;;15.07;10.27;;;15.50;99.90;;;;;;4997615;28;20205;-82
2022/05/18 02:42:05;;;;;;;16.30;10.30;;;15.50;99.90;;;;;;4998233;28;20175;-83
2022/05/18 02:44:31;;;;;;;16.07;10.37;;;15.50;99.90;;;;;;4998045;28;20321;-83
2022/05/18 02:46:59;;;;;;;19.10;11.20;;;15.40;99.90;;;;;;4998114;28;20228;-83
2022/05/18 02:49:26;;;;;;;20.77;10.40;;;15.50;99.90;;;;;;4998203;28;20278;-83
2022/05/18 02:51:52;;;;;;;17.10;11.03;;;15.50;99.90;;;;;;4997891;28;20281;-83
2022/05/18 02:57:04;;;;;;;17.87;10.70;;;15.50;99.90;;;;;;5016110;28;20543;-84
2022/05/18 02:59:31;;;;;;;18.07;10.87;;;15.40;99.90;;;;;;4997049;28;20544;-82
2022/05/18 03:01:56;;;;;;;18.33;11.00;;;15.50;99.90;;;;;;4996655;28;20290;-83
2022/05/18 03:04:22;;;;;;;19.20;10.80;;;15.40;99.90;;;;;;4997716;28;20205;-83
2022/05/18 03:06:48;;;;;;;19.83;11.90;;;15.40;99.90;;;;;;4997461;28;20209;-84
2022/05/18 03:09:14;;;;;;;17.40;10.80;;;15.20;99.90;;;;;;4996827;28;20186;-83
2022/05/18 03:11:41;;;;;;;19.03;11.23;;;15.20;99.90;;;;;;4996885;28;20198;-83
2022/05/18 03:14:06;;;;;;;15.70;10.63;;;15.30;99.90;;;;;;4996294;28;20267;-83
2022/05/18 03:16:33;;;;;;;16.47;10.50;;;15.20;99.90;;;;;;5013858;28;20604;-83
2022/05/18 03:18:58;;;;;;;16.37;11.23;;;15.20;99.90;;;;;;4996251;28;20233;-83
2022/05/18 03:24:10;;;;;;;17.13;10.60;;;15.00;99.90;;;;;;5014532;28;20217;-82
2022/05/18 03:26:37;;;;;;;19.47;10.90;;;15.00;99.90;;;;;;4996716;28;20194;-82
2022/05/18 03:29:03;;;;;;;15.67;10.63;;;15.10;99.90;;;;;;4996442;28;20643;-82
2022/05/18 03:31:28;;;;;;;18.70;11.23;;;15.00;99.90;;;;;;4996366;28;20198;-82
2022/05/18 03:33:55;;;;;;;22.57;10.53;;;15.00;99.90;;;;;;4996614;28;20262;-82
2022/05/18 03:36:21;;;;;;;21.27;12.23;;;14.90;99.90;;;;;;4995912;28;20270;-82
2022/05/18 03:38:48;;;;;;;17.30;11.20;;;15.00;99.90;;;;;;4996888;28;20525;-82
2022/05/18 03:41:16;;;;;;;20.70;11.73;;;15.00;99.90;;;;;;4996060;28;20190;-83
2022/05/18 03:43:42;;;;;;;17.03;11.27;;;14.90;99.90;;;;;;4996002;28;20183;-83
2022/05/18 03:46:08;;;;;;;17.20;11.37;;;14.90;99.90;;;;;;4996036;28;20265;-83
2022/05/18 03:48:35;;;;;;;23.07;10.80;;;14.80;99.90;;;;;;4995575;28;20182;-82
2022/05/18 03:51:03;;;;;;;13.83;10.83;;;14.90;99.90;;;;;;4995672;28;20194;-82
2022/05/18 03:53:29;;;;;;;19.03;12.10;;;14.90;99.90;;;;;;4995588;28;20194;-82
2022/05/18 03:55:55;;;;;;;19.43;11.30;;;14.90;99.90;;;;;;4995883;28;20167;-82
2022/05/18 03:58:21;;;;;;;16.07;11.23;;;14.80;99.90;;;;;;4996061;28;20182;-83
2022/05/18 04:00:50;;;;;;;22.40;11.80;;;14.80;99.90;;;;;;4996544;28;20210;-82
2022/05/18 04:03:18;;;;;;;18.83;11.57;;;14.80;99.90;;;;;;4997147;28;20246;-82
2022/05/18 04:05:45;;;;;;;20.80;11.67;;;14.80;99.90;;;;;;4996884;28;20179;-83
2022/05/18 04:08:11;;;;;;;17.60;11.20;;;14.80;99.90;;;;;;4997634;28;20186;-83
2022/05/18 04:10:38;;;;;;;22.10;11.47;;;14.80;99.90;;;;;;4997223;28;20198;-83
2022/05/18 04:13:05;;;;;;;18.07;11.13;;;14.80;99.90;;;;;;4996693;28;20182;-82
2022/05/18 04:15:31;;;;;;;19.47;11.60;;;14.90;99.90;;;;;;4996756;28;20179;-84
2022/05/18 04:17:58;;;;;;;17.47;11.60;;;14.80;99.90;;;;;;4996738;28;20177;-82
2022/05/18 04:20:24;;;;;;;16.60;11.73;;;14.80;99.90;;;;;;4996156;28;20214;-84
2022/05/18 04:22:51;;;;;;;19.23;11.37;;;14.90;99.90;;;;;;4996531;28;20167;-85
2022/05/18 04:25:20;;;;;;;17.53;11.57;;;15.00;99.90;;;;;;4997439;28;20658;-84
2022/05/18 04:27:47;;;;;;;18.90;12.33;;;15.00;99.90;;;;;;4995423;28;20171;-84
2022/05/18 04:30:14;;;;;;;16.47;11.53;;;15.10;99.90;;;;;;4996111;28;20213;-83
2022/05/18 04:32:40;;;;;;;20.83;11.73;;;15.20;99.90;;;;;;4996705;28;20641;-83
2022/05/18 04:35:08;;;;;;;14.77;10.77;;;15.30;99.90;;;;;;4996677;28;20256;-83
2022/05/18 04:37:35;;;;;;;16.33;10.87;;;15.50;99.90;;;;;;4997088;28;20178;-83
2022/05/18 04:40:00;;;;;;;15.77;9.33;;;15.70;99.90;;;;;;4997014;28;20229;-83
2022/05/18 04:42:26;;;;;;;12.73;8.27;;;15.90;99.90;;;;;;4996913;28;20654;-84
2022/05/18 04:44:52;;;;;;;10.47;7.73;;;16.30;99.90;;;;;;4996191;28;20262;-82
2022/05/18 04:47:23;;;;;;;10.63;7.23;;;16.50;99.90;;;;;;4996129;28;20632;-83
2022/05/18 04:49:50;;;;;;;11.63;7.43;;;16.60;99.90;;;;;;4995957;28;20178;-83
2022/05/18 04:52:17;;;;;;;13.27;8.00;;;16.70;99.90;;;;;;4996069;28;20201;-81
2022/05/18 04:54:42;;;;;;;10.20;7.63;;;16.70;99.90;;;;;;4996211;28;20179;-82
2022/05/18 04:57:08;;;;;;;10.43;7.30;;;16.80;99.90;;;;;;5013987;28;20186;-82
2022/05/18 04:59:34;;;;;;;12.73;7.60;;;16.70;99.90;;;;;;4995453;28;20198;-82
2022/05/18 05:01:59;;;;;;;15.13;8.40;;;16.70;99.90;;;;;;4996135;28;20195;-84
2022/05/18 05:04:25;;;;;;;12.83;9.00;;;16.80;99.90;;;;;;4996478;28;20201;-83
2022/05/18 05:06:51;;;;;;;13.93;8.70;;;16.70;99.90;;;;;;4995898;28;20269;-82
2022/05/18 05:09:17;;;;;;;16.73;8.93;;;16.90;99.90;;;;;;4995965;28;20523;-81
2022/05/18 05:11:42;;;;;;;11.67;8.10;;;16.90;99.90;;;;;;4996037;28;20201;-83
2022/05/18 05:14:08;;;;;;;12.27;7.90;;;17.10;99.90;;;;;;4996242;28;20655;-82
2022/05/18 05:16:34;;;;;;;11.90;7.43;;;17.20;99.90;;;;;;4996212;28;20178;-81
2022/05/18 05:19:00;;;;;;;11.27;7.53;;;17.50;99.90;;;;;;4997035;28;20571;-81
2022/05/18 05:21:26;;;;;;;15.10;6.80;;;17.60;99.90;;;;;;4996422;28;20194;-82
2022/05/18 05:23:51;;;;;;;11.23;7.10;;;17.50;99.90;;;;;;4996291;28;20171;-83
2022/05/18 05:26:17;;;;;;;16.00;7.30;;;17.50;99.90;;;;;;4995706;28;20171;-82
2022/05/18 05:28:43;;;;;;;13.13;7.50;;;17.70;99.90;;;;;;4996039;28;20171;-83
2022/05/18 05:31:11;;;;;;;8.93;7.27;;;17.80;99.90;;;;;;4995068;28;20281;-83
2022/05/18 05:33:39;;;;;;;13.57;7.63;;;17.80;99.90;;;;;;4995272;28;20174;-83
2022/05/18 05:36:05;;;;;;;15.07;8.23;;;17.80;99.90;;;;;;4996235;28;20270;-83
2022/05/18 05:38:31;;;;;;;12.83;7.63;;;17.90;99.90;;;;;;4997719;28;20167;-82
2022/05/18 05:41:00;;;;;;;12.53;7.37;;;18.00;99.90;;;;;;4998620;28;20206;-80
2022/05/18 05:43:26;;;;;;;10.67;7.03;;;18.10;99.90;;;;;;4997886;28;20170;-81
2022/05/18 05:46:01;;;;;;;13.87;6.60;;;18.30;99.90;;;;;;5015886;28;20175;-81
2022/05/18 05:48:27;;;;;;;10.27;7.43;;;18.50;99.90;;;;;;4997909;28;20323;-80
2022/05/18 05:50:53;;;;;;;13.10;7.03;;;18.70;99.90;;;;;;4997461;28;20190;-81
2022/05/18 05:53:19;;;;;;;10.13;6.90;;;18.90;99.90;;;;;;4998392;28;20583;-82
2022/05/18 05:55:45;;;;;;;12.30;7.17;;;19.00;99.90;;;;;;5016090;28;20564;-81
2022/05/18 05:58:11;;;;;;;12.63;6.50;;;19.20;99.90;;;;;;4997787;28;20170;-81
2022/05/18 06:00:37;;;;;;;13.35;6.35;;;19.30;99.90;;;;;;4997444;28;20318;-81
2022/05/18 06:03:03;;;;;;;12.30;5.30;;;19.80;99.90;;;;;;4997423;28;20166;-80
2022/05/18 06:05:29;;;;;;;12.10;4.97;;;20.40;99.90;;;;;;5015432;28;20631;-81
2022/05/18 06:07:55;;;;;;;7.75;5.10;;;20.90;99.90;;;;;;4997588;28;20174;-81
2022/05/18 06:10:21;;;;;;;8.40;4.70;;;21.00;99.90;;;;;;4997298;28;20686;-82
2022/05/18 06:12:47;;;;;;;9.40;4.82;;;20.70;99.90;;;;;;4997241;28;20222;-81
2022/05/18 06:15:13;;;;;;;12.10;4.90;;;20.40;99.90;;;;;;4997149;28;20177;-82
2022/05/18 06:17:39;;;;;;;8.10;5.07;;;20.80;99.90;;;;;;4997415;28;20179;-80
2022/05/18 06:20:06;;;;;;;9.80;5.00;;;20.80;99.90;;;;;;4996903;28;20557;-81
2022/05/18 06:22:31;;;;;;;8.65;5.00;;;20.80;99.90;;;;;;4996657;28;20171;-81
2022/05/18 06:24:57;;;;;;;8.45;4.78;;;20.80;99.90;;;;;;4997047;28;20181;-81
2022/05/18 06:27:23;;;;;;;9.25;5.22;;;21.50;99.90;;;;;;5014983;28;20507;-80
2022/05/18 06:29:49;;;;;;;7.22;4.45;;;21.70;99.90;;;;;;4998376;28;20525;-81
2022/05/18 06:32:15;;;;;;;7.25;4.93;;;21.90;99.90;;;;;;4997172;28;20181;-82
2022/05/18 06:34:41;;;;;;;6.18;5.00;;;21.80;99.90;;;;;;4996656;28;20179;-81
2022/05/18 06:37:07;;;;;;;8.68;4.65;;;21.80;99.90;;;;;;4996466;28;20651;-80
2022/05/18 06:39:33;;;;;;;12.52;5.53;;;22.20;99.90;;;;;;5014525;28;20198;-82
2022/05/18 06:41:59;;;;;;;9.35;4.85;;;22.20;99.90;;;;;;4997652;28;20285;-82
2022/05/18 06:44:26;;;;;;;7.15;4.32;;;22.80;99.90;;;;;;4998086;28;20171;-81
2022/05/18 06:46:52;;;;;;;9.75;4.78;;;22.80;99.90;;;;;;4997868;28;20167;-81
2022/05/18 06:49:19;;;;;;;16.55;4.70;;;23.20;99.90;;;;;;4997994;28;20175;-81
2022/05/18 06:51:46;;;;;;;8.90;4.25;;;23.00;99.90;;;;;;4998100;28;20206;-80
2022/05/18 06:54:12;;;;;;;6.78;3.55;;;23.10;99.90;;;;;;4998193;28;20194;-80
2022/05/18 06:56:41;;;;;;;14.25;4.10;;;23.70;99.90;;;;;;4998045;28;20213;-80
2022/05/18 06:59:08;;;;;;;8.77;4.05;;;23.60;99.90;;;;;;4998534;28;20297;-79
2022/05/18 07:01:35;;;;;;;5.00;3.65;;;23.70;99.90;;;;;;4997782;28;20201;-81
2022/05/18 07:04:01;;;;;;;7.72;3.92;;;24.10;99.90;;;;;;4997756;28;20166;-79
2022/05/18 07:06:31;;;;;;;7.38;3.90;;;24.20;99.90;;;;;;4997781;28;20182;-78
2022/05/18 07:08:57;;;;;;;14.30;3.60;;;24.40;99.90;;;;;;4997265;28;20667;-81
2022/05/18 07:11:24;;;;;;;8.40;3.60;;;24.80;99.90;;;;;;4997362;28;20269;-78
2022/05/18 07:13:54;;;;;;;7.68;3.40;;;25.10;99.90;;;;;;4998469;28;20229;-81
2022/05/18 07:16:20;;;;;;;8.55;3.80;;;25.00;99.90;;;;;;4998315;28;20198;-79
2022/05/18 07:18:47;;;;;;;5.88;3.50;;;25.30;99.90;;;;;;4998580;28;20317;-80
2022/05/18 07:21:14;;;;;;;10.07;3.40;;;25.40;99.90;;;;;;4999043;28;20191;-81
2022/05/18 07:23:40;;;;;;;4.60;3.28;;;25.90;99.90;;;;;;4998292;28;20171;-81
2022/05/18 07:26:07;;;;;;;4.68;3.40;;;25.80;99.70;;;;;;4997422;28;20197;-80
2022/05/18 07:28:33;;;;;;;5.90;3.28;;;26.00;98.60;;;;;;4997886;28;20649;-81
2022/05/18 07:30:59;;;;;;;9.75;2.80;;;26.40;96.70;;;;;;4997633;28;20205;-81
2022/05/18 07:33:26;;;;;;;5.70;3.35;;;26.00;97.80;;;;;;4998244;28;20178;-81
2022/05/18 07:35:54;;;;;;;3.20;2.90;;;25.80;97.60;;;;;;4997485;28;20174;-80
2022/05/18 07:38:23;;;;;;;8.60;3.03;;;26.00;97.10;;;;;;4997399;28;20175;-80
2022/05/18 07:40:49;;;;;;;6.03;2.90;;;25.90;97.00;;;;;;4997257;28;20683;-81
2022/05/18 07:43:18;;;;;;;6.88;2.63;;;26.70;96.30;;;;;;5014483;28;20250;-80
2022/05/18 07:45:44;;;;;;;8.40;3.13;;;26.40;95.20;;;;;;4996849;28;20167;-81
2022/05/18 07:48:10;;;;;;;8.40;2.50;;;27.20;94.30;;;;;;4997536;28;20211;-82
2022/05/18 07:50:36;;;;;;;5.00;3.05;;;27.40;94.70;;;;;;4997149;28;20378;-80
2022/05/18 07:53:01;;;;;;;11.23;2.92;;;27.20;94.30;;;;;;4997066;28;20205;-81
2022/05/18 07:55:27;;;;;;;4.97;3.10;;;27.00;94.10;;;;;;4996507;28;20320;-81
2022/05/18 07:57:53;;;;;;;4.68;3.03;;;27.10;93.40;;;;;;4996911;28;20205;-79
2022/05/18 08:00:21;;;;;;;7.00;3.05;;;27.00;93.00;;;;;;4996951;28;20202;-81
2022/05/18 08:02:47;;;;;;;4.05;2.85;;;27.40;92.80;;;;;;4996725;28;20171;-80
2022/05/18 08:05:13;;;;;;;7.47;3.17;;;27.00;94.20;;;;;;4996523;28;20179;-81
2022/05/18 08:07:42;;;;;;;6.50;3.42;;;27.40;93.70;;;;;;4996794;28;20174;-81
2022/05/18 08:15:37;;;;;;;4.45;2.63;;;27.90;92.10;;;;;;5014386;28;20182;-81
2022/05/18 08:18:02;;;;;;;10.80;3.50;;;28.00;91.10;;;;;;4996045;28;20175;-81
2022/05/18 08:20:30;;;;;;;7.68;2.78;;;27.80;91.40;;;;;;5013441;28;20301;-81
2022/05/18 08:22:55;;;;;;;7.00;2.40;;;28.00;91.30;;;;;;4995734;28;20167;-80
2022/05/18 08:25:21;;;;;;;4.93;3.25;;;28.30;91.80;;;;;;4996003;28;20236;-81
2022/05/18 08:27:49;;;;;;;4.43;2.50;;;28.40;90.40;;;;;;4996167;28;20643;-83
2022/05/18 08:30:19;;;;;;;5.38;2.60;;;28.40;90.90;;;;;;4995673;28;20233;-81
2022/05/18 08:32:45;;;;;;;4.55;3.08;;;28.40;91.30;;;;;;4995653;28;20181;-81
2022/05/18 08:35:14;;;;;;;6.78;3.05;;;29.10;88.40;;;;;;4995426;28;20184;-80
2022/05/18 08:37:48;;;;;;;8.55;2.90;;;28.40;86.90;;;;;;4995690;28;20182;-81
2022/05/18 08:40:28;;;;;;;11.40;2.45;;;29.00;89.30;;;;;;4995822;28;20573;-80
2022/05/18 08:42:55;;;;;;;7.50;2.45;;;29.30;89.30;;;;;;4995140;28;20202;-81
2022/05/18 08:45:22;;;;;;;6.22;3.03;;;29.70;86.00;;;;;;4995450;28;20178;-81
2022/05/18 08:48:31;;;;;;;4.18;2.15;;;29.30;85.30;;;;;;4994985;28;20179;-81
2022/05/18 08:51:04;;;;;;;3.17;2.40;;;29.40;84.90;;;;;;4958433;28;20678;-80
2022/05/18 08:53:58;;;;;;;5.03;2.72;;;29.10;86.70;;;;;;4994918;28;20309;-81
2022/05/18 08:56:31;;;;;;;5.72;2.65;;;29.30;84.50;;;;;;4995410;28;20586;-81
2022/05/18 08:58:59;;;;;;;5.90;2.47;;;29.20;86.50;;;;;;4996298;28;20234;-80
2022/05/18 09:01:46;;;;;;;8.13;2.50;;;29.70;87.20;;;;;;4996861;28;20274;-81
2022/05/18 09:04:22;;;;;;;7.25;2.70;;;30.10;86.60;;;;;;4997635;28;20179;-80
2022/05/18 09:07:12;;;;;;;7.30;2.65;;;29.60;84.30;;;;;;4998373;28;20257;-81
2022/05/18 09:10:13;;;;;;;5.85;2.50;;;29.40;84.00;;;;;;4996927;28;20576;-81
2022/05/18 09:12:52;;;;;;;6.05;2.65;;;30.00;81.40;;;;;;4998116;28;20171;-81
2022/05/18 09:15:34;;;;;;;5.60;2.25;;;29.80;81.50;;;;;;5001239;28;20698;-80
2022/05/18 09:18:22;;;;;;;13.93;2.75;;;30.10;82.60;;;;;;5000926;28;20545;-81
2022/05/18 09:20:54;;;;;;;5.22;2.90;;;30.20;83.00;;;;;;4999691;28;20222;-81
2022/05/18 09:23:29;;;;;;;5.38;2.55;;;30.60;81.10;;;;;;5001991;28;20647;-82
2022/05/18 09:26:34;;;;;;;6.38;2.50;;;29.80;81.60;;;;;;5002406;28;20251;-81
2022/05/18 09:29:24;;;;;;;3.05;2.70;;;29.40;81.00;;;;;;5001619;28;20178;-81
2022/05/18 09:32:05;;;;;;;3.75;2.47;;;30.30;80.70;;;;;;4964548;28;20206;-82
2022/05/18 09:34:31;;;;;;;3.67;2.50;;;30.30;80.30;;;;;;5000708;28;20185;-83
2022/05/18 09:37:25;;;;;;;4.75;2.50;;;30.40;78.70;;;;;;5002114;28;20174;-82
2022/05/18 09:40:16;;;;;;;3.38;2.75;;;30.40;79.00;;;;;;5001378;28;20199;-83
2022/05/18 09:43:21;;;;;;;4.07;2.60;;;30.60;79.20;;;;;;4991403;28;20179;-83
2022/05/18 09:45:49;;;;;;;3.03;2.60;;;30.40;79.50;;;;;;4971050;28;20836;-83
2022/05/18 09:48:22;;;;;;;5.68;2.60;;;30.60;80.60;;;;;;5001069;28;20178;-84
2022/05/18 09:50:49;;;;;;;4.25;2.40;;;31.00;79.20;;;;;;5001507;28;20662;-81
2022/05/18 09:53:16;;;;;;;4.13;2.45;;;31.20;79.50;;;;;;5000103;28;20574;-82
2022/05/18 09:55:46;;;;;;;5.63;2.40;;;31.30;78.70;;;;;;5002460;28;20257;-84
2022/05/18 09:58:35;;;;;;;4.68;2.50;;;31.00;79.10;;;;;;5000084;28;20179;-84
2022/05/18 10:09:42;;;;;;;4.43;2.55;;;30.80;78.10;;;;;;5017717;28;20229;-83
2022/05/18 10:12:51;;;;;;;3.15;2.45;;;30.90;77.60;;;;;;4999767;28;20190;-84
2022/05/18 10:15:25;;;;;;;5.20;2.28;;;30.90;78.60;;;;;;4986697;28;20182;-81
2022/05/18 10:17:56;;;;;;;5.93;2.53;;;31.20;75.00;;;;;;5000560;28;20205;-82
2022/05/18 10:20:33;;;;;;;7.28;2.35;;;31.10;74.70;;;;;;4999454;28;20218;-84
2022/05/18 10:23:00;;;;;;;13.35;2.72;;;31.30;77.40;;;;;;5000172;28;20167;-82
2022/05/18 10:25:32;;;;;;;6.70;2.40;;;31.20;74.50;;;;;;4998542;28;20620;-82
2022/05/18 10:28:03;;;;;;;4.53;2.47;;;31.40;76.80;;;;;;5000298;28;20190;-82
2022/05/18 10:30:34;;;;;;;4.47;2.38;;;31.50;76.20;;;;;;5000756;28;20205;-82
2022/05/18 10:33:20;;;;;;;2.33;2.13;;;31.30;76.20;;;;;;5000194;28;20178;-84
2022/05/18 10:35:50;;;;;;;5.40;2.50;;;31.80;74.70;;;;;;4999303;28;20195;-83
2022/05/18 10:38:32;;;;;;;5.35;2.53;;;32.30;72.80;;;;;;4999959;28;20170;-83
2022/05/18 10:41:03;;;;;;;3.83;2.30;;;32.30;73.80;;;;;;4999069;28;20582;-83
2022/05/18 10:43:33;;;;;;;8.00;2.60;;;32.50;75.00;;;;;;4999492;28;20237;-82
2022/05/18 10:46:12;;;;;;;6.70;2.40;;;32.20;73.20;;;;;;4999554;28;20230;-83
2022/05/18 10:48:41;;;;;;;4.20;2.67;;;32.70;74.20;;;;;;4998568;28;20181;-82
2022/05/18 10:51:12;;;;;;;3.28;2.30;;;31.70;72.90;;;;;;4999502;28;20197;-84
2022/05/18 10:53:46;;;;;;;3.17;2.25;;;31.70;73.00;;;;;;4999643;28;20194;-83
2022/05/18 10:56:28;;;;;;;7.68;2.67;;;31.90;76.10;;;;;;5000091;28;20174;-82
2022/05/18 10:59:39;;;;;;;4.97;2.80;;;32.00;71.50;;;;;;4998949;28;20265;-80
2022/05/18 11:02:30;;;;;;;5.38;2.50;;;31.70;76.10;;;;;;5000049;28;20175;-81
2022/05/18 11:05:03;;;;;;;3.22;2.13;;;31.90;72.50;;;;;;5018654;28;20171;-83
2022/05/18 11:07:29;;;;;;;7.80;2.78;;;31.80;71.80;;;;;;5000028;28;20575;-82
2022/05/18 11:09:56;;;;;;;3.72;2.72;;;31.70;74.10;;;;;;4999541;28;20557;-82
2022/05/18 11:12:40;;;;;;;6.97;2.58;;;30.80;76.10;;;;;;4999910;28;20175;-82
2022/05/18 11:15:35;;;;;;;5.30;2.95;;;31.70;74.50;;;;;;4998876;28;20444;-83
2022/05/18 11:18:39;;;;;;;4.75;2.70;;;31.50;73.80;;;;;;4996997;28;20190;-83
2022/05/18 11:21:07;;;;;;;3.72;2.28;;;30.60;72.40;;;;;;4999047;28;20202;-81
2022/05/18 11:24:06;;;;;;;6.47;2.20;;;31.30;71.80;;;;;;4998753;28;20167;-82
2022/05/18 11:27:10;;;;;;;3.35;2.10;;;32.00;71.90;;;;;;5000764;28;20201;-80
2022/05/18 11:29:42;;;;;;;3.38;2.25;;;32.30;70.60;;;;;;4998866;28;20171;-83
2022/05/18 11:32:26;;;;;;;2.78;2.08;;;32.50;70.40;;;;;;4998930;28;20178;-82
2022/05/18 11:34:55;;;;;;;3.75;2.10;;;31.20;70.70;;;;;;4998578;28;20208;-83
2022/05/18 11:37:32;;;;;;;5.65;2.25;;;30.70;70.70;;;;;;4998115;28;20174;-82
2022/05/18 11:40:04;;;;;;;3.58;2.35;;;31.20;70.70;;;;;;4998563;28;20213;-83
2022/05/18 11:42:52;;;;;;;7.32;2.40;;;31.60;71.10;;;;;;4998198;28;20198;-80
2022/05/18 11:45:41;;;;;;;4.43;2.28;;;32.00;69.80;;;;;;4999082;28;20274;-80
2022/05/18 11:48:39;;;;;;;3.80;2.47;;;31.70;68.70;;;;;;4997817;28;20218;-80
2022/05/18 11:51:24;;;;;;;3.03;2.42;;;31.50;69.20;;;;;;4984282;28;20293;-83
2022/05/18 11:53:49;;;;;;;5.93;2.63;;;31.40;71.20;;;;;;4997388;28;20197;-83
2022/05/18 11:56:26;;;;;;;4.75;2.10;;;31.20;71.80;;;;;;4998275;28;20171;-82
2022/05/18 12:01:54;;;;;;;4.03;2.10;;;30.90;71.60;;;;;;5016043;28;20194;-82
2022/05/18 12:04:38;;;;;;;4.90;2.30;;;30.70;72.20;;;;;;4998062;28;20227;-82
2022/05/18 12:07:34;;;;;;;4.45;2.13;;;30.70;69.20;;;;;;4998290;28;20171;-84
2022/05/18 12:10:03;;;;;;;8.00;2.70;;;30.60;70.60;;;;;;4998690;28;20191;-82
2022/05/18 12:12:38;;;;;;;5.78;2.17;;;31.20;68.60;;;;;;5000429;28;20174;-84
2022/05/18 12:15:15;;;;;;;2.97;2.20;;;31.60;69.00;;;;;;4997422;28;20178;-82
2022/05/18 12:18:22;;;;;;;2.85;1.90;;;31.00;69.40;;;;;;5015670;28;20512;-85
2022/05/18 12:21:06;;;;;;;3.00;2.17;;;30.10;68.60;;;;;;4915250;29;20249;-85
2022/05/18 12:23:39;;;;;;;2.83;2.08;;;30.20;71.30;;;;;;5001594;28;20249;-82
2022/05/18 12:26:05;;;;;;;5.13;2.42;;;30.00;71.70;;;;;;5012456;28;20170;-82
2022/05/18 12:28:31;;;;;;;7.15;2.35;;;30.00;73.40;;;;;;5016240;28;20197;-82
2022/05/18 12:31:00;;;;;;;3.78;1.77;;;30.20;70.00;;;;;;5015776;28;20194;-82
2022/05/18 12:33:26;;;;;;;3.67;2.20;;;29.80;69.40;;;;;;5015401;28;20198;-82
2022/05/18 12:36:00;;;;;;;6.22;2.40;;;30.20;71.50;;;;;;5010770;28;20174;-85
2022/05/18 12:38:32;;;;;;;7.15;2.25;;;30.20;71.70;;;;;;4995188;28;20182;-82
2022/05/18 12:41:01;;;;;;;3.75;2.10;;;29.90;71.80;;;;;;5013592;28;20206;-82
2022/05/18 12:43:31;;;;;;;3.92;2.20;;;29.70;70.50;;;;;;4996004;28;20518;-84
2022/05/18 12:46:03;;;;;;;2.72;2.25;;;29.50;71.40;;;;;;4996036;28;20177;-83
2022/05/18 12:48:44;;;;;;;3.67;2.15;;;29.60;73.80;;;;;;4997893;28;20655;-83
2022/05/18 12:51:44;;;;;;;5.00;2.42;;;29.40;71.60;;;;;;5002052;28;20189;-82
2022/05/18 12:54:09;;;;;;;3.25;2.28;;;29.70;72.50;;;;;;5008736;28;20202;-84
2022/05/18 12:56:35;;;;;;;5.85;2.25;;;29.70;71.80;;;;;;5007849;28;20202;-84
2022/05/18 12:59:23;;;;;;;2.53;2.00;;;29.60;70.80;;;;;;5008760;28;20249;-82
2022/05/18 13:02:30;;;;;;;4.78;2.40;;;30.00;71.90;;;;;;5008828;28;20203;-83
2022/05/18 13:04:57;;;;;;;4.75;2.20;;;29.80;70.70;;;;;;5007295;28;20222;-82
2022/05/18 13:07:30;;;;;;;7.10;2.40;;;29.60;72.20;;;;;;5025723;28;20174;-83
2022/05/18 13:10:15;;;;;;;4.07;2.15;;;29.50;70.60;;;;;;5005762;28;20670;-82
2022/05/18 13:13:17;;;;;;;3.80;2.13;;;29.40;70.40;;;;;;5006539;28;20171;-84
2022/05/18 13:16:12;;;;;;;5.22;2.50;;;29.00;71.00;;;;;;5006584;28;20162;-82
2022/05/18 13:18:38;;;;;;;2.92;2.38;;;29.00;71.60;;;;;;4984934;28;20186;-83
2022/05/18 13:21:06;;;;;;;5.53;2.53;;;29.10;71.00;;;;;;5009870;28;20562;-80
2022/05/18 13:23:32;;;;;;;5.90;2.17;;;28.90;70.60;;;;;;5018416;28;20170;-82